sensor_id;sensor_type;location;lat;lon;timestamp;P1;durP1;ratioP1;P2;durP2;ratioP2
70505;SDS011;58032;49.820;6.274;2022-11-20T00:01:26;9.83;;;3.20;;
70505;SDS011;58032;49.820;6.274;2022-11-20T00:03:54;8.93;;;3.45;;
70505;SDS011;58032;49.820;6.274;2022-11-20T00:06:22;10.48;;;3.33;;
70505;SDS011;58032;49.820;6.274;2022-11-20T00:08:51;8.02;;;4.13;;
70505;SDS011;58032;49.820;6.274;2022-11-20T00:11:22;8.82;;;3.05;;
70505;SDS011;58032;49.820;6.274;2022-11-20T00:13:52;7.37;;;2.70;;
70505;SDS011;58032;49.820;6.274;2022-11-20T00:16:21;6.82;;;2.83;;
70505;SDS011;58032;49.820;6.274;2022-11-20T00:18:50;5.93;;;1.95;;
70505;SDS011;58032;49.820;6.274;2022-11-20T00:21:19;6.78;;;2.70;;
70505;SDS011;58032;49.820;6.274;2022-11-20T00:23:48;5.30;;;2.40;;
70505;SDS011;58032;49.820;6.274;2022-11-20T00:26:17;5.43;;;2.33;;
70505;SDS011;58032;49.820;6.274;2022-11-20T00:28:49;7.15;;;3.13;;
70505;SDS011;58032;49.820;6.274;2022-11-20T00:31:21;7.25;;;3.10;;
70505;SDS011;58032;49.820;6.274;2022-11-20T00:33:48;8.32;;;3.25;;
70505;SDS011;58032;49.820;6.274;2022-11-20T00:36:19;7.22;;;3.47;;
70505;SDS011;58032;49.820;6.274;2022-11-20T00:38:51;9.17;;;3.43;;
70505;SDS011;58032;49.820;6.274;2022-11-20T00:41:19;9.90;;;3.50;;
70505;SDS011;58032;49.820;6.274;2022-11-20T00:43:46;9.00;;;3.45;;
70505;SDS011;58032;49.820;6.274;2022-11-20T00:46:14;7.20;;;3.80;;
70505;SDS011;58032;49.820;6.274;2022-11-20T00:48:43;8.27;;;3.72;;
70505;SDS011;58032;49.820;6.274;2022-11-20T00:51:12;8.87;;;4.10;;
70505;SDS011;58032;49.820;6.274;2022-11-20T00:53:40;9.35;;;3.88;;
70505;SDS011;58032;49.820;6.274;2022-11-20T00:56:09;12.82;;;3.60;;
70505;SDS011;58032;49.820;6.274;2022-11-20T00:58:39;9.40;;;4.07;;
70505;SDS011;58032;49.820;6.274;2022-11-20T01:01:11;8.77;;;3.75;;
70505;SDS011;58032;49.820;6.274;2022-11-20T01:03:44;10.37;;;3.57;;
70505;SDS011;58032;49.820;6.274;2022-11-20T01:06:14;8.93;;;3.67;;
70505;SDS011;58032;49.820;6.274;2022-11-20T01:08:43;7.68;;;3.17;;
70505;SDS011;58032;49.820;6.274;2022-11-20T01:11:13;6.97;;;3.00;;
70505;SDS011;58032;49.820;6.274;2022-11-20T01:13:42;6.55;;;3.22;;
70505;SDS011;58032;49.820;6.274;2022-11-20T01:16:12;6.80;;;2.93;;
70505;SDS011;58032;49.820;6.274;2022-11-20T01:18:48;5.53;;;2.80;;
70505;SDS011;58032;49.820;6.274;2022-11-20T01:21:21;8.13;;;3.10;;
70505;SDS011;58032;49.820;6.274;2022-11-20T01:23:50;5.85;;;2.28;;
70505;SDS011;58032;49.820;6.274;2022-11-20T01:26:22;6.78;;;2.28;;
70505;SDS011;58032;49.820;6.274;2022-11-20T01:28:51;7.47;;;2.53;;
70505;SDS011;58032;49.820;6.274;2022-11-20T01:31:20;4.85;;;2.35;;
70505;SDS011;58032;49.820;6.274;2022-11-20T01:33:53;7.70;;;3.10;;
70505;SDS011;58032;49.820;6.274;2022-11-20T01:36:23;6.55;;;2.80;;
70505;SDS011;58032;49.820;6.274;2022-11-20T01:38:51;6.82;;;3.15;;
70505;SDS011;58032;49.820;6.274;2022-11-20T01:41:19;6.20;;;3.07;;
70505;SDS011;58032;49.820;6.274;2022-11-20T01:44:06;8.85;;;3.45;;
70505;SDS011;58032;49.820;6.274;2022-11-20T01:46:34;8.13;;;3.55;;
70505;SDS011;58032;49.820;6.274;2022-11-20T01:49:21;8.43;;;3.15;;
70505;SDS011;58032;49.820;6.274;2022-11-20T01:51:57;7.28;;;3.10;;
70505;SDS011;58032;49.820;6.274;2022-11-20T01:54:38;6.60;;;3.10;;
70505;SDS011;58032;49.820;6.274;2022-11-20T01:57:10;8.02;;;3.13;;
70505;SDS011;58032;49.820;6.274;2022-11-20T01:59:40;7.70;;;3.08;;
70505;SDS011;58032;49.820;6.274;2022-11-20T02:02:17;8.68;;;3.03;;
70505;SDS011;58032;49.820;6.274;2022-11-20T02:04:44;6.22;;;3.13;;
70505;SDS011;58032;49.820;6.274;2022-11-20T02:07:11;6.33;;;2.80;;
70505;SDS011;58032;49.820;6.274;2022-11-20T02:09:38;5.90;;;2.80;;
70505;SDS011;58032;49.820;6.274;2022-11-20T02:12:05;6.22;;;2.60;;
70505;SDS011;58032;49.820;6.274;2022-11-20T02:14:52;6.47;;;2.30;;
70505;SDS011;58032;49.820;6.274;2022-11-20T02:17:19;5.25;;;2.42;;
70505;SDS011;58032;49.820;6.274;2022-11-20T02:19:47;5.40;;;2.37;;
70505;SDS011;58032;49.820;6.274;2022-11-20T02:22:19;5.53;;;2.15;;
70505;SDS011;58032;49.820;6.274;2022-11-20T02:24:55;5.57;;;2.28;;
70505;SDS011;58032;49.820;6.274;2022-11-20T02:27:25;5.30;;;2.30;;
70505;SDS011;58032;49.820;6.274;2022-11-20T02:29:54;6.20;;;2.65;;
70505;SDS011;58032;49.820;6.274;2022-11-20T02:32:28;4.93;;;2.10;;
70505;SDS011;58032;49.820;6.274;2022-11-20T02:34:57;6.07;;;2.55;;
70505;SDS011;58032;49.820;6.274;2022-11-20T02:37:27;6.47;;;2.58;;
70505;SDS011;58032;49.820;6.274;2022-11-20T02:39:58;6.53;;;2.70;;
70505;SDS011;58032;49.820;6.274;2022-11-20T02:42:25;5.72;;;2.60;;
70505;SDS011;58032;49.820;6.274;2022-11-20T02:44:52;6.33;;;2.80;;
70505;SDS011;58032;49.820;6.274;2022-11-20T02:47:19;8.60;;;3.50;;
70505;SDS011;58032;49.820;6.274;2022-11-20T02:49:46;9.20;;;3.28;;
70505;SDS011;58032;49.820;6.274;2022-11-20T02:52:13;6.85;;;3.05;;
70505;SDS011;58032;49.820;6.274;2022-11-20T02:54:40;7.72;;;2.85;;
70505;SDS011;58032;49.820;6.274;2022-11-20T02:57:07;9.60;;;3.10;;
70505;SDS011;58032;49.820;6.274;2022-11-20T02:59:34;9.73;;;2.90;;
70505;SDS011;58032;49.820;6.274;2022-11-20T03:02:01;7.97;;;3.55;;
70505;SDS011;58032;49.820;6.274;2022-11-20T03:04:28;7.82;;;3.20;;
70505;SDS011;58032;49.820;6.274;2022-11-20T03:06:55;7.50;;;3.05;;
70505;SDS011;58032;49.820;6.274;2022-11-20T03:09:22;7.17;;;3.07;;
70505;SDS011;58032;49.820;6.274;2022-11-20T03:11:49;6.53;;;2.85;;
70505;SDS011;58032;49.820;6.274;2022-11-20T03:14:16;10.95;;;2.72;;
70505;SDS011;58032;49.820;6.274;2022-11-20T03:16:43;6.25;;;2.47;;
70505;SDS011;58032;49.820;6.274;2022-11-20T03:19:10;5.70;;;2.70;;
70505;SDS011;58032;49.820;6.274;2022-11-20T03:21:38;6.20;;;2.50;;
70505;SDS011;58032;49.820;6.274;2022-11-20T03:24:05;7.55;;;2.58;;
70505;SDS011;58032;49.820;6.274;2022-11-20T03:26:33;5.25;;;2.45;;
70505;SDS011;58032;49.820;6.274;2022-11-20T03:29:01;6.50;;;2.53;;
70505;SDS011;58032;49.820;6.274;2022-11-20T03:31:31;5.03;;;2.10;;
70505;SDS011;58032;49.820;6.274;2022-11-20T03:34:03;6.33;;;2.30;;
70505;SDS011;58032;49.820;6.274;2022-11-20T03:36:31;6.25;;;2.65;;
70505;SDS011;58032;49.820;6.274;2022-11-20T03:38:58;8.35;;;2.70;;
70505;SDS011;58032;49.820;6.274;2022-11-20T03:41:26;6.53;;;2.88;;
70505;SDS011;58032;49.820;6.274;2022-11-20T03:46:24;8.40;;;3.40;;
70505;SDS011;58032;49.820;6.274;2022-11-20T03:48:53;6.57;;;2.58;;
70505;SDS011;58032;49.820;6.274;2022-11-20T03:51:24;5.95;;;2.80;;
70505;SDS011;58032;49.820;6.274;2022-11-20T03:53:54;4.97;;;1.88;;
70505;SDS011;58032;49.820;6.274;2022-11-20T03:56:29;5.95;;;2.58;;
70505;SDS011;58032;49.820;6.274;2022-11-20T03:58:57;6.33;;;2.50;;
70505;SDS011;58032;49.820;6.274;2022-11-20T04:01:26;6.25;;;2.60;;
70505;SDS011;58032;49.820;6.274;2022-11-20T04:04:02;5.65;;;2.45;;
70505;SDS011;58032;49.820;6.274;2022-11-20T04:06:30;7.57;;;2.97;;
70505;SDS011;58032;49.820;6.274;2022-11-20T04:09:00;7.63;;;3.03;;
70505;SDS011;58032;49.820;6.274;2022-11-20T04:11:31;7.10;;;3.03;;
70505;SDS011;58032;49.820;6.274;2022-11-20T04:14:01;7.32;;;2.72;;
70505;SDS011;58032;49.820;6.274;2022-11-20T04:16:30;5.95;;;2.45;;
70505;SDS011;58032;49.820;6.274;2022-11-20T04:19:04;8.55;;;2.70;;
70505;SDS011;58032;49.820;6.274;2022-11-20T04:21:32;6.72;;;3.08;;
70505;SDS011;58032;49.820;6.274;2022-11-20T04:24:00;9.73;;;2.80;;
70505;SDS011;58032;49.820;6.274;2022-11-20T04:26:27;6.43;;;2.80;;
70505;SDS011;58032;49.820;6.274;2022-11-20T04:28:56;7.22;;;2.70;;
70505;SDS011;58032;49.820;6.274;2022-11-20T04:31:27;8.23;;;3.13;;
70505;SDS011;58032;49.820;6.274;2022-11-20T04:33:55;7.32;;;2.60;;
70505;SDS011;58032;49.820;6.274;2022-11-20T04:36:23;6.97;;;2.83;;
70505;SDS011;58032;49.820;6.274;2022-11-20T04:38:57;8.10;;;2.90;;
70505;SDS011;58032;49.820;6.274;2022-11-20T04:41:26;10.27;;;3.47;;
70505;SDS011;58032;49.820;6.274;2022-11-20T04:43:56;6.93;;;2.95;;
70505;SDS011;58032;49.820;6.274;2022-11-20T04:46:35;7.85;;;3.42;;
70505;SDS011;58032;49.820;6.274;2022-11-20T04:49:07;8.10;;;2.83;;
70505;SDS011;58032;49.820;6.274;2022-11-20T04:51:35;8.02;;;3.30;;
70505;SDS011;58032;49.820;6.274;2022-11-20T04:54:02;8.45;;;3.67;;
70505;SDS011;58032;49.820;6.274;2022-11-20T04:56:29;9.02;;;3.70;;
70505;SDS011;58032;49.820;6.274;2022-11-20T04:58:59;8.23;;;3.70;;
70505;SDS011;58032;49.820;6.274;2022-11-20T05:01:26;9.40;;;3.97;;
70505;SDS011;58032;49.820;6.274;2022-11-20T05:03:53;11.35;;;4.03;;
70505;SDS011;58032;49.820;6.274;2022-11-20T05:06:21;9.88;;;4.05;;
70505;SDS011;58032;49.820;6.274;2022-11-20T05:08:48;8.65;;;3.47;;
70505;SDS011;58032;49.820;6.274;2022-11-20T05:11:17;9.93;;;4.38;;
70505;SDS011;58032;49.820;6.274;2022-11-20T05:13:46;10.77;;;4.23;;
70505;SDS011;58032;49.820;6.274;2022-11-20T05:16:15;9.25;;;3.85;;
70505;SDS011;58032;49.820;6.274;2022-11-20T05:18:43;11.75;;;4.38;;
70505;SDS011;58032;49.820;6.274;2022-11-20T05:21:11;9.68;;;4.05;;
70505;SDS011;58032;49.820;6.274;2022-11-20T05:23:40;9.50;;;3.75;;
70505;SDS011;58032;49.820;6.274;2022-11-20T05:26:08;11.30;;;4.73;;
70505;SDS011;58032;49.820;6.274;2022-11-20T05:28:39;9.98;;;3.72;;
70505;SDS011;58032;49.820;6.274;2022-11-20T05:31:11;13.07;;;5.07;;
70505;SDS011;58032;49.820;6.274;2022-11-20T05:33:40;11.85;;;4.70;;
70505;SDS011;58032;49.820;6.274;2022-11-20T05:36:08;10.75;;;4.50;;
70505;SDS011;58032;49.820;6.274;2022-11-20T05:38:36;10.60;;;4.97;;
70505;SDS011;58032;49.820;6.274;2022-11-20T05:41:07;13.65;;;5.20;;
70505;SDS011;58032;49.820;6.274;2022-11-20T05:43:37;12.10;;;5.00;;
70505;SDS011;58032;49.820;6.274;2022-11-20T05:46:06;10.13;;;4.10;;
70505;SDS011;58032;49.820;6.274;2022-11-20T05:48:34;12.48;;;4.65;;
70505;SDS011;58032;49.820;6.274;2022-11-20T05:51:02;14.87;;;6.03;;
70505;SDS011;58032;49.820;6.274;2022-11-20T05:53:34;15.20;;;5.85;;
70505;SDS011;58032;49.820;6.274;2022-11-20T05:56:12;13.52;;;4.95;;
70505;SDS011;58032;49.820;6.274;2022-11-20T05:58:41;12.82;;;6.13;;
70505;SDS011;58032;49.820;6.274;2022-11-20T06:01:13;11.65;;;5.25;;
70505;SDS011;58032;49.820;6.274;2022-11-20T06:03:41;15.00;;;5.63;;
70505;SDS011;58032;49.820;6.274;2022-11-20T06:06:12;12.95;;;5.38;;
70505;SDS011;58032;49.820;6.274;2022-11-20T06:08:40;13.98;;;5.72;;
70505;SDS011;58032;49.820;6.274;2022-11-20T06:11:08;15.63;;;6.13;;
70505;SDS011;58032;49.820;6.274;2022-11-20T06:13:36;13.48;;;5.75;;
70505;SDS011;58032;49.820;6.274;2022-11-20T06:16:07;14.73;;;5.83;;
70505;SDS011;58032;49.820;6.274;2022-11-20T06:18:34;14.05;;;5.65;;
70505;SDS011;58032;49.820;6.274;2022-11-20T06:21:06;14.90;;;5.72;;
70505;SDS011;58032;49.820;6.274;2022-11-20T06:23:35;12.80;;;5.55;;
70505;SDS011;58032;49.820;6.274;2022-11-20T06:26:04;14.15;;;6.38;;
70505;SDS011;58032;49.820;6.274;2022-11-20T06:28:35;15.23;;;5.57;;
70505;SDS011;58032;49.820;6.274;2022-11-20T06:31:02;16.92;;;6.00;;
70505;SDS011;58032;49.820;6.274;2022-11-20T06:33:30;17.05;;;5.97;;
70505;SDS011;58032;49.820;6.274;2022-11-20T06:35:57;15.35;;;5.88;;
70505;SDS011;58032;49.820;6.274;2022-11-20T06:38:26;14.48;;;5.93;;
70505;SDS011;58032;49.820;6.274;2022-11-20T06:40:53;11.27;;;4.80;;
70505;SDS011;58032;49.820;6.274;2022-11-20T06:43:21;13.80;;;5.38;;
70505;SDS011;58032;49.820;6.274;2022-11-20T06:45:52;13.73;;;6.13;;
70505;SDS011;58032;49.820;6.274;2022-11-20T06:48:20;13.70;;;5.55;;
70505;SDS011;58032;49.820;6.274;2022-11-20T06:50:47;14.35;;;5.30;;
70505;SDS011;58032;49.820;6.274;2022-11-20T06:53:14;15.30;;;6.70;;
70505;SDS011;58032;49.820;6.274;2022-11-20T06:55:42;14.00;;;5.63;;
70505;SDS011;58032;49.820;6.274;2022-11-20T06:58:10;16.48;;;6.00;;
70505;SDS011;58032;49.820;6.274;2022-11-20T07:00:37;15.75;;;5.78;;
70505;SDS011;58032;49.820;6.274;2022-11-20T07:03:05;16.55;;;6.30;;
70505;SDS011;58032;49.820;6.274;2022-11-20T07:05:32;16.83;;;6.53;;
70505;SDS011;58032;49.820;6.274;2022-11-20T07:08:00;13.27;;;5.78;;
70505;SDS011;58032;49.820;6.274;2022-11-20T07:10:27;12.35;;;5.63;;
70505;SDS011;58032;49.820;6.274;2022-11-20T07:12:54;15.00;;;5.28;;
70505;SDS011;58032;49.820;6.274;2022-11-20T07:15:22;16.45;;;5.63;;
70505;SDS011;58032;49.820;6.274;2022-11-20T07:17:50;17.07;;;6.10;;
70505;SDS011;58032;49.820;6.274;2022-11-20T07:20:17;14.60;;;5.78;;
70505;SDS011;58032;49.820;6.274;2022-11-20T07:22:44;15.25;;;6.22;;
70505;SDS011;58032;49.820;6.274;2022-11-20T07:25:10;13.55;;;6.10;;
70505;SDS011;58032;49.820;6.274;2022-11-20T07:27:37;12.07;;;5.63;;
70505;SDS011;58032;49.820;6.274;2022-11-20T07:30:04;13.67;;;5.53;;
70505;SDS011;58032;49.820;6.274;2022-11-20T07:32:32;16.67;;;6.15;;
70505;SDS011;58032;49.820;6.274;2022-11-20T07:34:59;14.98;;;5.68;;
70505;SDS011;58032;49.820;6.274;2022-11-20T07:37:26;17.17;;;6.53;;
70505;SDS011;58032;49.820;6.274;2022-11-20T07:39:53;13.82;;;5.82;;
70505;SDS011;58032;49.820;6.274;2022-11-20T07:42:20;13.17;;;5.80;;
70505;SDS011;58032;49.820;6.274;2022-11-20T07:44:49;15.65;;;5.40;;
70505;SDS011;58032;49.820;6.274;2022-11-20T07:47:16;15.30;;;5.50;;
70505;SDS011;58032;49.820;6.274;2022-11-20T07:49:43;14.43;;;5.65;;
70505;SDS011;58032;49.820;6.274;2022-11-20T07:52:10;12.98;;;5.15;;
70505;SDS011;58032;49.820;6.274;2022-11-20T07:54:37;12.97;;;5.27;;
70505;SDS011;58032;49.820;6.274;2022-11-20T07:57:04;15.90;;;5.55;;
70505;SDS011;58032;49.820;6.274;2022-11-20T07:59:31;16.08;;;6.22;;
70505;SDS011;58032;49.820;6.274;2022-11-20T08:01:58;12.57;;;5.22;;
70505;SDS011;58032;49.820;6.274;2022-11-20T08:04:25;13.95;;;5.57;;
70505;SDS011;58032;49.820;6.274;2022-11-20T08:06:52;13.30;;;5.60;;
70505;SDS011;58032;49.820;6.274;2022-11-20T08:09:19;12.18;;;4.93;;
70505;SDS011;58032;49.820;6.274;2022-11-20T08:11:46;10.50;;;4.40;;
70505;SDS011;58032;49.820;6.274;2022-11-20T08:14:31;12.85;;;5.20;;
70505;SDS011;58032;49.820;6.274;2022-11-20T08:16:58;12.05;;;5.45;;
70505;SDS011;58032;49.820;6.274;2022-11-20T08:19:26;12.93;;;4.60;;
70505;SDS011;58032;49.820;6.274;2022-11-20T08:21:52;11.73;;;4.75;;
70505;SDS011;58032;49.820;6.274;2022-11-20T08:24:19;12.57;;;5.53;;
70505;SDS011;58032;49.820;6.274;2022-11-20T08:26:46;12.05;;;4.25;;
70505;SDS011;58032;49.820;6.274;2022-11-20T08:29:13;16.33;;;4.80;;
70505;SDS011;58032;49.820;6.274;2022-11-20T08:31:40;11.97;;;5.57;;
70505;SDS011;58032;49.820;6.274;2022-11-20T08:34:07;12.75;;;5.50;;
70505;SDS011;58032;49.820;6.274;2022-11-20T08:36:35;10.65;;;4.85;;
70505;SDS011;58032;49.820;6.274;2022-11-20T08:39:02;14.10;;;5.43;;
70505;SDS011;58032;49.820;6.274;2022-11-20T08:41:30;13.10;;;4.80;;
70505;SDS011;58032;49.820;6.274;2022-11-20T08:44:00;9.87;;;4.20;;
70505;SDS011;58032;49.820;6.274;2022-11-20T08:46:33;13.20;;;4.35;;
70505;SDS011;58032;49.820;6.274;2022-11-20T08:49:08;10.75;;;4.20;;
70505;SDS011;58032;49.820;6.274;2022-11-20T08:51:37;8.40;;;3.40;;
70505;SDS011;58032;49.820;6.274;2022-11-20T08:54:05;8.70;;;3.00;;
70505;SDS011;58032;49.820;6.274;2022-11-20T08:56:32;9.40;;;2.97;;
70505;SDS011;58032;49.820;6.274;2022-11-20T08:59:00;7.55;;;2.60;;
70505;SDS011;58032;49.820;6.274;2022-11-20T09:01:43;5.60;;;2.55;;
70505;SDS011;58032;49.820;6.274;2022-11-20T09:04:10;7.32;;;2.63;;
70505;SDS011;58032;49.820;6.274;2022-11-20T09:06:38;7.15;;;2.60;;
70505;SDS011;58032;49.820;6.274;2022-11-20T09:09:05;7.07;;;2.67;;
70505;SDS011;58032;49.820;6.274;2022-11-20T09:11:32;5.18;;;2.17;;
70505;SDS011;58032;49.820;6.274;2022-11-20T09:14:02;7.15;;;2.38;;
70505;SDS011;58032;49.820;6.274;2022-11-20T09:16:30;8.48;;;2.83;;
70505;SDS011;58032;49.820;6.274;2022-11-20T09:18:57;6.15;;;3.20;;
70505;SDS011;58032;49.820;6.274;2022-11-20T09:21:38;7.97;;;3.43;;
70505;SDS011;58032;49.820;6.274;2022-11-20T09:24:05;8.30;;;2.40;;
70505;SDS011;58032;49.820;6.274;2022-11-20T09:26:32;6.93;;;2.38;;
70505;SDS011;58032;49.820;6.274;2022-11-20T09:28:59;7.43;;;2.97;;
70505;SDS011;58032;49.820;6.274;2022-11-20T09:31:26;11.85;;;3.13;;
70505;SDS011;58032;49.820;6.274;2022-11-20T09:33:53;6.50;;;3.03;;
70505;SDS011;58032;49.820;6.274;2022-11-20T09:36:21;8.65;;;2.65;;
70505;SDS011;58032;49.820;6.274;2022-11-20T09:38:48;6.70;;;2.35;;
70505;SDS011;58032;49.820;6.274;2022-11-20T09:43:58;8.40;;;2.38;;
70505;SDS011;58032;49.820;6.274;2022-11-20T09:47:02;6.00;;;1.90;;
70505;SDS011;58032;49.820;6.274;2022-11-20T09:51:58;7.50;;;2.25;;
70505;SDS011;58032;49.820;6.274;2022-11-20T09:54:31;7.03;;;2.30;;
70505;SDS011;58032;49.820;6.274;2022-11-20T09:57:02;5.43;;;2.20;;
70505;SDS011;58032;49.820;6.274;2022-11-20T09:59:33;6.60;;;1.97;;
70505;SDS011;58032;49.820;6.274;2022-11-20T10:02:53;5.03;;;1.45;;
70505;SDS011;58032;49.820;6.274;2022-11-20T10:05:10;4.68;;;1.50;;
70505;SDS011;58032;49.820;6.274;2022-11-20T10:07:44;6.60;;;2.08;;
70505;SDS011;58032;49.820;6.274;2022-11-20T10:10:26;6.32;;;2.53;;
70505;SDS011;58032;49.820;6.274;2022-11-20T10:30:23;6.00;;;2.40;;
70505;SDS011;58032;49.820;6.274;2022-11-20T10:32:52;4.45;;;1.80;;
70505;SDS011;58032;49.820;6.274;2022-11-20T10:35:29;5.38;;;1.70;;
70505;SDS011;58032;49.820;6.274;2022-11-20T10:38:03;4.20;;;1.80;;
70505;SDS011;58032;49.820;6.274;2022-11-20T10:43:24;5.85;;;2.10;;
70505;SDS011;58032;49.820;6.274;2022-11-20T10:46:08;7.97;;;1.90;;
70505;SDS011;58032;49.820;6.274;2022-11-20T10:48:41;4.25;;;1.40;;
70505;SDS011;58032;49.820;6.274;2022-11-20T10:51:12;4.22;;;1.20;;
70505;SDS011;58032;49.820;6.274;2022-11-20T10:56:48;7.32;;;1.63;;
70505;SDS011;58032;49.820;6.274;2022-11-20T10:59:35;5.22;;;1.10;;
70505;SDS011;58032;49.820;6.274;2022-11-20T11:02:20;3.42;;;1.13;;
70505;SDS011;58032;49.820;6.274;2022-11-20T11:04:49;7.47;;;1.48;;
70505;SDS011;58032;49.820;6.274;2022-11-20T11:09:54;2.38;;;0.70;;
70505;SDS011;58032;49.820;6.274;2022-11-20T11:12:26;5.82;;;1.50;;
70505;SDS011;58032;49.820;6.274;2022-11-20T11:14:55;4.75;;;1.27;;
70505;SDS011;58032;49.820;6.274;2022-11-20T11:17:25;5.45;;;1.23;;
70505;SDS011;58032;49.820;6.274;2022-11-20T11:19:57;5.30;;;1.30;;
70505;SDS011;58032;49.820;6.274;2022-11-20T11:22:24;9.93;;;1.83;;
70505;SDS011;58032;49.820;6.274;2022-11-20T11:24:52;4.93;;;1.40;;
70505;SDS011;58032;49.820;6.274;2022-11-20T11:27:20;4.93;;;1.42;;
70505;SDS011;58032;49.820;6.274;2022-11-20T11:29:47;6.80;;;1.35;;
70505;SDS011;58032;49.820;6.274;2022-11-20T11:32:23;3.90;;;1.00;;
70505;SDS011;58032;49.820;6.274;2022-11-20T11:35:00;5.78;;;1.27;;
70505;SDS011;58032;49.820;6.274;2022-11-20T11:37:35;3.90;;;1.10;;
70505;SDS011;58032;49.820;6.274;2022-11-20T11:40:04;3.88;;;1.10;;
70505;SDS011;58032;49.820;6.274;2022-11-20T11:42:51;4.32;;;1.13;;
70505;SDS011;58032;49.820;6.274;2022-11-20T11:45:22;3.93;;;1.37;;
70505;SDS011;58032;49.820;6.274;2022-11-20T11:47:50;4.82;;;1.30;;
70505;SDS011;58032;49.820;6.274;2022-11-20T11:50:20;5.63;;;1.30;;
70505;SDS011;58032;49.820;6.274;2022-11-20T11:55:31;3.55;;;1.00;;
70505;SDS011;58032;49.820;6.274;2022-11-20T12:00:41;7.07;;;0.90;;
70505;SDS011;58032;49.820;6.274;2022-11-20T12:03:52;5.00;;;1.10;;
70505;SDS011;58032;49.820;6.274;2022-11-20T12:06:13;7.82;;;1.35;;
70505;SDS011;58032;49.820;6.274;2022-11-20T12:11:51;2.83;;;0.93;;
70505;SDS011;58032;49.820;6.274;2022-11-20T12:17:08;6.00;;;1.05;;
70505;SDS011;58032;49.820;6.274;2022-11-20T12:19:38;4.47;;;1.10;;
70505;SDS011;58032;49.820;6.274;2022-11-20T12:25:02;4.13;;;1.27;;
70505;SDS011;58032;49.820;6.274;2022-11-20T12:30:19;5.68;;;1.08;;
70505;SDS011;58032;49.820;6.274;2022-11-20T12:41:45;6.88;;;1.02;;
70505;SDS011;58032;49.820;6.274;2022-11-20T12:44:42;6.57;;;1.13;;
70505;SDS011;58032;49.820;6.274;2022-11-20T12:53:54;3.03;;;0.90;;
70505;SDS011;58032;49.820;6.274;2022-11-20T12:59:21;6.78;;;1.17;;
70505;SDS011;58032;49.820;6.274;2022-11-20T13:07:58;6.77;;;1.10;;
70505;SDS011;58032;49.820;6.274;2022-11-20T13:10:31;4.22;;;0.65;;
70505;SDS011;58032;49.820;6.274;2022-11-20T13:13:07;3.67;;;0.75;;
70505;SDS011;58032;49.820;6.274;2022-11-20T13:15:40;4.93;;;0.70;;
70505;SDS011;58032;49.820;6.274;2022-11-20T13:18:35;3.75;;;0.70;;
70505;SDS011;58032;49.820;6.274;2022-11-20T13:21:15;5.17;;;0.77;;
70505;SDS011;58032;49.820;6.274;2022-11-20T13:23:48;2.78;;;0.68;;
70505;SDS011;58032;49.820;6.274;2022-11-20T13:29:08;2.55;;;0.50;;
70505;SDS011;58032;49.820;6.274;2022-11-20T13:31:40;2.67;;;0.80;;
70505;SDS011;58032;49.820;6.274;2022-11-20T13:34:25;4.43;;;0.70;;
70505;SDS011;58032;49.820;6.274;2022-11-20T13:36:54;3.35;;;0.60;;
70505;SDS011;58032;49.820;6.274;2022-11-20T13:39:26;5.38;;;1.00;;
70505;SDS011;58032;49.820;6.274;2022-11-20T13:41:56;4.50;;;0.77;;
70505;SDS011;58032;49.820;6.274;2022-11-20T13:44:27;3.72;;;0.98;;
70505;SDS011;58032;49.820;6.274;2022-11-20T13:47:00;3.13;;;0.80;;
70505;SDS011;58032;49.820;6.274;2022-11-20T13:49:34;4.03;;;1.33;;
70505;SDS011;58032;49.820;6.274;2022-11-20T14:00:17;4.40;;;0.87;;
70505;SDS011;58032;49.820;6.274;2022-11-20T14:02:52;2.50;;;0.65;;
70505;SDS011;58032;49.820;6.274;2022-11-20T14:05:27;3.03;;;1.02;;
70505;SDS011;58032;49.820;6.274;2022-11-20T14:07:57;5.18;;;0.80;;
70505;SDS011;58032;49.820;6.274;2022-11-20T14:10:25;5.00;;;0.93;;
70505;SDS011;58032;49.820;6.274;2022-11-20T14:12:57;4.83;;;1.13;;
70505;SDS011;58032;49.820;6.274;2022-11-20T14:17:56;4.32;;;1.05;;
70505;SDS011;58032;49.820;6.274;2022-11-20T14:20:25;6.82;;;1.23;;
70505;SDS011;58032;49.820;6.274;2022-11-20T14:22:58;7.63;;;2.33;;
70505;SDS011;58032;49.820;6.274;2022-11-20T14:25:33;9.03;;;1.60;;
70505;SDS011;58032;49.820;6.274;2022-11-20T14:28:04;3.30;;;0.70;;
70505;SDS011;58032;49.820;6.274;2022-11-20T14:30:44;2.75;;;0.80;;
70505;SDS011;58032;49.820;6.274;2022-11-20T14:33:15;4.07;;;1.08;;
70505;SDS011;58032;49.820;6.274;2022-11-20T14:35:48;3.88;;;0.88;;
70505;SDS011;58032;49.820;6.274;2022-11-20T14:38:31;5.00;;;1.90;;
70505;SDS011;58032;49.820;6.274;2022-11-20T14:41:07;9.52;;;2.40;;
70505;SDS011;58032;49.820;6.274;2022-11-20T14:43:37;6.97;;;2.17;;
70505;SDS011;58032;49.820;6.274;2022-11-20T14:46:09;9.90;;;2.13;;
70505;SDS011;58032;49.820;6.274;2022-11-20T14:48:46;5.00;;;1.90;;
70505;SDS011;58032;49.820;6.274;2022-11-20T14:51:31;4.53;;;1.97;;
70505;SDS011;58032;49.820;6.274;2022-11-20T14:56:58;6.28;;;2.25;;
70505;SDS011;58032;49.820;6.274;2022-11-20T14:59:32;4.22;;;1.50;;
70505;SDS011;58032;49.820;6.274;2022-11-20T15:02:06;7.47;;;1.63;;
70505;SDS011;58032;49.820;6.274;2022-11-20T15:07:23;5.55;;;1.50;;
70505;SDS011;58032;49.820;6.274;2022-11-20T15:10:06;2.92;;;1.10;;
70505;SDS011;58032;49.820;6.274;2022-11-20T15:12:59;4.28;;;0.80;;
70505;SDS011;58032;49.820;6.274;2022-11-20T15:15:45;5.32;;;0.93;;
70505;SDS011;58032;49.820;6.274;2022-11-20T15:18:16;2.87;;;0.73;;
70505;SDS011;58032;49.820;6.274;2022-11-20T15:20:51;5.13;;;0.82;;
70505;SDS011;58032;49.820;6.274;2022-11-20T15:23:20;3.45;;;0.50;;
70505;SDS011;58032;49.820;6.274;2022-11-20T15:25:52;3.80;;;0.60;;
70505;SDS011;58032;49.820;6.274;2022-11-20T15:28:31;3.00;;;0.70;;
70505;SDS011;58032;49.820;6.274;2022-11-20T15:31:01;3.13;;;0.40;;
70505;SDS011;58032;49.820;6.274;2022-11-20T15:33:30;2.30;;;0.63;;
70505;SDS011;58032;49.820;6.274;2022-11-20T15:36:00;5.38;;;0.50;;
70505;SDS011;58032;49.820;6.274;2022-11-20T15:38:27;4.25;;;0.68;;
70505;SDS011;58032;49.820;6.274;2022-11-20T15:40:54;3.10;;;0.93;;
70505;SDS011;58032;49.820;6.274;2022-11-20T15:43:21;2.97;;;0.93;;
70505;SDS011;58032;49.820;6.274;2022-11-20T15:45:51;5.13;;;1.92;;
70505;SDS011;58032;49.820;6.274;2022-11-20T15:48:21;5.00;;;0.77;;
70505;SDS011;58032;49.820;6.274;2022-11-20T15:53:33;2.97;;;0.60;;
70505;SDS011;58032;49.820;6.274;2022-11-20T15:56:00;2.23;;;0.53;;
70505;SDS011;58032;49.820;6.274;2022-11-20T15:58:28;2.55;;;0.73;;
70505;SDS011;58032;49.820;6.274;2022-11-20T16:00:55;3.67;;;0.82;;
70505;SDS011;58032;49.820;6.274;2022-11-20T16:03:22;4.15;;;1.95;;
70505;SDS011;58032;49.820;6.274;2022-11-20T16:05:50;3.67;;;0.60;;
70505;SDS011;58032;49.820;6.274;2022-11-20T16:08:17;3.03;;;0.90;;
70505;SDS011;58032;49.820;6.274;2022-11-20T16:10:44;3.10;;;0.82;;
70505;SDS011;58032;49.820;6.274;2022-11-20T16:13:11;2.75;;;0.73;;
70505;SDS011;58032;49.820;6.274;2022-11-20T16:15:59;4.10;;;0.52;;
70505;SDS011;58032;49.820;6.274;2022-11-20T16:18:32;6.13;;;3.08;;
70505;SDS011;58032;49.820;6.274;2022-11-20T16:20:59;5.10;;;2.03;;
70505;SDS011;58032;49.820;6.274;2022-11-20T16:23:26;2.92;;;1.38;;
70505;SDS011;58032;49.820;6.274;2022-11-20T16:25:53;4.25;;;1.52;;
70505;SDS011;58032;49.820;6.274;2022-11-20T16:28:20;2.53;;;0.70;;
70505;SDS011;58032;49.820;6.274;2022-11-20T16:30:47;2.88;;;0.60;;
70505;SDS011;58032;49.820;6.274;2022-11-20T16:33:15;5.43;;;0.60;;
70505;SDS011;58032;49.820;6.274;2022-11-20T16:35:43;3.45;;;0.70;;
70505;SDS011;58032;49.820;6.274;2022-11-20T16:38:10;2.10;;;0.60;;
70505;SDS011;58032;49.820;6.274;2022-11-20T16:40:37;3.22;;;0.70;;
70505;SDS011;58032;49.820;6.274;2022-11-20T16:43:11;3.25;;;1.00;;